Time;durP1;ratioP1;P1;durP2;ratioP2;P2;SDS_P1;SDS_P2;PMS_P1;PMS_P2;Temp;Humidity;BMP_temperature;BMP_pressure;BME280_temperature;BME280_humidity;BME280_pressure;Samples;Min_cycle;Max_cycle;Signal;HPM_P1;HPM_P2
2022/05/15 00:02:12;;;;;;;5.87;2.67;;;;;;;12.58;58.59;100058.54;1748825;82;21038;-59
2022/05/15 00:04:41;;;;;;;7.22;2.30;;;;;;;12.57;58.56;100056.84;1748611;81;21030;-63
2022/05/15 00:07:10;;;;;;;6.10;2.15;;;;;;;12.56;58.53;100049.67;1748670;82;20998;-59
2022/05/15 00:09:39;;;;;;;5.30;2.40;;;;;;;12.53;58.51;100052.86;1748603;82;20967;-58
2022/05/15 00:12:09;;;;;;;4.05;1.80;;;;;;;12.52;58.59;100058.04;1748643;82;21018;-57
2022/05/15 00:14:37;;;;;;;5.70;2.05;;;;;;;12.49;58.64;100049.70;1748664;81;20987;-58
2022/05/15 00:17:06;;;;;;;6.53;2.22;;;;;;;12.49;58.65;100050.23;1748564;82;20951;-58
2022/05/15 00:19:35;;;;;;;5.62;1.98;;;;;;;12.48;58.70;100040.30;1748767;81;21458;-57
2022/05/15 00:22:07;;;;;;;6.12;1.60;;;;;;;12.46;58.71;100046.55;1748710;82;21393;-58
2022/05/15 00:24:36;;;;;;;6.05;1.98;;;;;;;12.46;58.73;100046.55;1748737;82;20979;-58
2022/05/15 00:27:05;;;;;;;4.95;1.90;;;;;;;12.46;58.79;100053.42;1748629;82;20998;-57
2022/05/15 00:29:37;;;;;;;3.27;1.80;;;;;;;12.45;58.87;100053.11;1748542;82;20986;-59
2022/05/15 00:32:06;;;;;;;4.33;1.87;;;;;;;12.40;59.04;100055.14;1748833;82;20963;-59
2022/05/15 00:34:35;;;;;;;4.70;1.80;;;;;;;12.36;59.25;100061.59;1748730;82;21011;-58
2022/05/15 00:37:04;;;;;;;7.03;1.90;;;;;;;12.29;59.46;100049.76;1748671;82;21426;-58
2022/05/15 00:39:32;;;;;;;4.70;1.92;;;;;;;12.24;59.54;100050.94;1748606;82;21364;-60
2022/05/15 00:42:01;;;;;;;3.35;1.77;;;;;;;12.22;59.63;100051.69;1748594;82;21399;-58
2022/05/15 00:44:30;;;;;;;4.85;2.42;;;;;;;12.21;59.74;100054.13;1748555;82;20990;-58
2022/05/15 00:46:59;;;;;;;4.12;1.80;;;;;;;12.22;59.81;100059.93;1748616;82;21002;-59
2022/05/15 00:49:28;;;;;;;4.00;1.70;;;;;;;12.17;59.89;100056.98;1748632;82;20999;-58
2022/05/15 00:52:00;;;;;;;7.22;1.85;;;;;;;12.17;59.95;100048.75;1748623;82;21564;-58
2022/05/15 00:54:48;;;;;;;5.10;2.00;;;;;;;12.18;59.88;100050.44;1748563;82;20951;-58
2022/05/15 00:57:33;;;;;;;7.12;1.87;;;;;;;12.17;60.00;100040.51;1748695;82;21010;-59
2022/05/15 01:00:07;;;;;;;4.08;1.72;;;;;;;12.15;60.13;100042.62;1748282;81;21031;-59
2022/05/15 01:02:50;;;;;;;6.30;2.12;;;;;;;12.16;60.11;100042.95;1748583;81;20979;-58
2022/05/15 01:05:19;;;;;;;6.30;2.02;;;;;;;12.16;60.14;100049.81;1748611;82;20954;-58
2022/05/15 01:07:48;;;;;;;5.83;2.12;;;;;;;12.14;60.21;100047.81;1748614;82;20983;-57
2022/05/15 01:10:17;;;;;;;4.97;2.12;;;;;;;12.10;60.33;100050.67;1748539;82;20998;-58
2022/05/15 01:12:48;;;;;;;6.20;1.80;;;;;;;12.05;60.45;100040.87;1748604;82;21050;-57
2022/05/15 01:15:22;;;;;;;6.70;1.80;;;;;;;12.00;60.53;100044.27;1748539;82;20990;-57
2022/05/15 01:17:51;;;;;;;5.72;2.12;;;;;;;11.98;60.67;100049.12;1748735;82;21450;-59
2022/05/15 01:20:24;;;;;;;4.60;2.08;;;;;;;11.94;60.84;100048.41;1748556;82;20979;-57
2022/05/15 01:22:53;;;;;;;5.67;1.90;;;;;;;11.89;61.03;100045.46;1748684;81;21006;-59
2022/05/15 01:25:25;;;;;;;4.05;1.90;;;;;;;11.85;61.17;100050.53;1748592;82;21003;-61
2022/05/15 01:28:12;;;;;;;5.80;1.75;;;;;;;11.86;61.33;100040.40;1748568;81;21019;-57
2022/05/15 01:30:44;;;;;;;6.05;2.55;;;;;;;11.88;61.40;100041.03;1748629;82;21406;-57
2022/05/15 01:33:13;;;;;;;6.87;3.42;;;;;;;11.88;61.55;100034.16;1748537;82;21014;-58
2022/05/15 01:35:42;;;;;;;7.95;2.70;;;;;;;11.86;61.67;100030.79;1748615;82;20963;-57
2022/05/15 01:38:10;;;;;;;6.53;2.77;;;;;;;11.86;61.74;100024.77;1748540;82;20967;-59
2022/05/15 01:40:39;;;;;;;4.70;2.37;;;;;;;11.88;61.83;100028.14;1748609;81;21006;-58
2022/05/15 01:43:08;;;;;;;5.47;2.40;;;;;;;11.88;61.88;100025.40;1748602;82;20975;-59
2022/05/15 01:45:37;;;;;;;5.20;2.35;;;;;;;11.88;61.96;100024.02;1748559;82;20991;-56
2022/05/15 01:48:06;;;;;;;5.30;2.70;;;;;;;11.85;62.00;100024.45;1748656;82;20970;-58
2022/05/15 01:50:35;;;;;;;4.95;2.30;;;;;;;11.79;62.11;100023.10;1723579;82;21016;-59
2022/05/15 01:53:05;;;;;;;8.75;2.52;;;;;;;11.72;62.13;100021.19;1748550;82;20995;-58
2022/05/15 01:55:33;;;;;;;6.65;2.62;;;;;;;11.66;62.30;100018.42;1748672;82;20990;-57
2022/05/15 01:58:02;;;;;;;8.85;2.72;;;;;;;11.58;62.54;100015.91;1748614;82;21010;-58
2022/05/15 02:00:31;;;;;;;4.97;2.70;;;;;;;11.48;62.83;100013.59;1748534;82;21462;-58
2022/05/15 02:03:00;;;;;;;7.30;3.12;;;;;;;11.38;63.26;100013.19;1748623;82;21416;-57
2022/05/15 02:05:29;;;;;;;9.40;2.47;;;;;;;11.29;63.57;100014.46;1748538;82;21014;-58
2022/05/15 02:07:58;;;;;;;6.17;2.52;;;;;;;11.26;63.96;100011.61;1748666;82;20991;-59
2022/05/15 02:10:26;;;;;;;10.72;3.20;;;;;;;11.28;64.18;100019.10;1748514;82;20975;-57
2022/05/15 02:12:57;;;;;;;7.17;2.58;;;;;;;11.27;64.40;100012.45;1689375;84;21044;-58
2022/05/15 02:15:25;;;;;;;6.60;2.70;;;;;;;11.27;64.62;100020.69;1689264;85;21044;-58
2022/05/15 02:17:54;;;;;;;6.35;2.75;;;;;;;11.27;64.88;100007.81;1689197;85;21416;-58
2022/05/15 02:20:23;;;;;;;7.12;2.42;;;;;;;11.23;65.04;100011.19;1666211;85;21070;-58
2022/05/15 02:22:52;;;;;;;5.83;2.37;;;;;;;11.20;65.27;100009.72;1689297;85;20980;-58
2022/05/15 02:25:23;;;;;;;6.60;2.62;;;;;;;11.22;65.39;100006.77;1689351;85;21003;-58
2022/05/15 02:27:51;;;;;;;6.53;2.72;;;;;;;11.24;65.57;100004.66;1689289;85;21047;-58
2022/05/15 02:30:20;;;;;;;8.05;2.87;;;;;;;11.24;65.56;100007.39;1700136;82;20975;-58
2022/05/15 02:32:49;;;;;;;5.22;2.42;;;;;;;11.21;65.57;100003.70;1748489;81;21006;-59
2022/05/15 02:35:18;;;;;;;7.50;2.60;;;;;;;11.18;65.76;100000.02;1748669;81;21023;-59
2022/05/15 02:37:48;;;;;;;5.55;2.27;;;;;;;11.10;65.87;99991.48;1723616;82;21478;-59
2022/05/15 02:40:19;;;;;;;8.35;2.30;;;;;;;11.10;66.11;99992.31;1748541;82;21023;-58
2022/05/15 02:42:48;;;;;;;6.17;2.50;;;;;;;11.11;66.36;99998.65;1748473;82;20959;-59
2022/05/15 02:45:17;;;;;;;4.97;2.52;;;;;;;11.14;66.43;100011.09;1723418;82;21077;-58
2022/05/15 02:47:46;;;;;;;9.50;3.15;;;;;;;11.08;66.46;100017.73;1748653;82;21026;-58
2022/05/15 02:53:02;;;;;;;7.65;2.90;;;;;;;11.02;67.01;100026.77;1748635;82;21427;-62
2022/05/15 02:55:31;;;;;;;7.55;2.52;;;;;;;11.06;67.34;100028.59;1748589;82;21486;-58
2022/05/15 02:58:00;;;;;;;5.22;2.30;;;;;;;11.07;67.51;100033.02;1748580;82;20959;-59
2022/05/15 03:00:29;;;;;;;5.70;2.22;;;;;;;11.12;67.75;100040.09;1744773;81;20976;-58
2022/05/15 03:02:58;;;;;;;6.92;2.80;;;;;;;11.19;68.07;100039.56;1740635;82;21114;-58
2022/05/15 03:05:28;;;;;;;8.03;2.60;;;;;;;11.21;68.22;100036.09;1740375;82;21035;-58
2022/05/15 03:07:59;;;;;;;6.90;3.00;;;;;;;11.26;68.38;100039.56;1740442;82;21348;-58
2022/05/15 03:10:27;;;;;;;5.72;3.05;;;;;;;11.29;68.45;100036.41;1743717;82;20964;-57
2022/05/15 03:12:57;;;;;;;4.90;2.80;;;;;;;11.32;68.47;100035.98;1743495;81;21007;-58
2022/05/15 03:15:26;;;;;;;6.75;2.62;;;;;;;11.34;68.43;100036.08;1742025;82;20971;-59
2022/05/15 03:17:54;;;;;;;7.20;2.70;;;;;;;11.35;68.40;100041.05;1742857;82;20967;-59
2022/05/15 03:20:27;;;;;;;11.05;3.00;;;;;;;11.40;68.33;100049.48;1742267;82;21014;-58
2022/05/15 03:22:55;;;;;;;6.35;2.50;;;;;;;11.47;68.30;100043.98;1740820;82;21000;-58
2022/05/15 03:25:26;;;;;;;8.83;3.30;;;;;;;11.51;68.29;100048.84;1740564;82;20999;-57
2022/05/15 03:27:55;;;;;;;4.78;3.37;;;;;;;11.55;68.25;100043.77;1740515;82;21011;-59
2022/05/15 03:30:23;;;;;;;4.30;2.67;;;;;;;11.57;68.17;100048.52;1740390;82;21007;-58
2022/05/15 03:32:54;;;;;;;7.05;3.17;;;;;;;11.60;68.04;100048.93;1740318;82;21023;-58
2022/05/15 03:35:24;;;;;;;5.67;2.83;;;;;;;11.59;67.94;100041.75;1740437;82;21379;-57
2022/05/15 03:37:53;;;;;;;7.47;2.75;;;;;;;11.62;67.82;100044.60;1740426;81;20991;-59
2022/05/15 03:40:21;;;;;;;5.30;2.52;;;;;;;11.65;67.73;100036.79;1740376;82;21011;-58
2022/05/15 03:42:52;;;;;;;5.45;2.77;;;;;;;11.68;67.60;100049.23;1740230;82;21443;-62
2022/05/15 03:45:21;;;;;;;7.20;2.70;;;;;;;11.69;67.50;100051.77;1740421;82;21442;-57
2022/05/15 03:47:52;;;;;;;7.00;2.80;;;;;;;11.68;67.54;100050.08;1740385;82;20981;-58
2022/05/15 03:50:25;;;;;;;8.15;3.08;;;;;;;11.69;67.53;100053.67;1723753;82;21046;-58
2022/05/15 03:52:54;;;;;;;9.20;3.10;;;;;;;11.67;67.46;100044.28;1740436;82;21026;-58
2022/05/15 03:55:23;;;;;;;8.18;2.83;;;;;;;11.68;67.46;100043.22;1740443;82;21423;-57
2022/05/15 03:57:55;;;;;;;9.08;3.20;;;;;;;11.71;67.43;100040.61;1740298;82;21493;-59
2022/05/15 04:00:23;;;;;;;7.72;3.17;;;;;;;11.74;67.34;100043.77;1742689;81;20970;-58
2022/05/15 04:02:51;;;;;;;7.22;2.87;;;;;;;11.79;67.21;100045.06;1748580;82;20971;-58
2022/05/15 04:05:20;;;;;;;6.62;2.77;;;;;;;11.80;67.30;100048.97;1748607;81;21011;-59
2022/05/15 04:07:50;;;;;;;5.37;2.40;;;;;;;11.81;67.19;100053.39;1748563;81;21276;-58
2022/05/15 04:10:21;;;;;;;8.70;3.05;;;;;;;11.81;67.06;100064.91;1748509;82;21010;-59
2022/05/15 04:12:49;;;;;;;6.00;2.58;;;;;;;11.82;67.03;100061.10;1748579;82;20997;-59
2022/05/15 04:15:19;;;;;;;10.40;3.35;;;;;;;11.82;66.93;100054.23;1748657;81;21004;-57
2022/05/15 04:17:54;;;;;;;9.25;3.20;;;;;;;11.83;66.97;100054.55;1748596;81;20982;-58
2022/05/15 04:20:23;;;;;;;9.28;2.98;;;;;;;11.88;66.89;100057.50;1748605;82;21420;-60
2022/05/15 04:22:52;;;;;;;7.72;3.20;;;;;;;11.92;66.79;100056.85;1748671;82;20966;-58
2022/05/15 04:25:21;;;;;;;5.72;2.92;;;;;;;11.97;66.62;100061.70;1748538;82;21037;-59
2022/05/15 04:27:50;;;;;;;9.95;3.50;;;;;;;11.96;66.46;100067.72;1748732;82;20982;-59
2022/05/15 04:30:23;;;;;;;8.83;2.80;;;;;;;11.97;66.46;100061.70;1748644;82;20991;-58
2022/05/15 04:32:52;;;;;;;8.28;2.33;;;;;;;12.01;66.26;100055.56;1748634;82;21406;-58
2022/05/15 04:35:21;;;;;;;8.88;2.52;;;;;;;12.04;66.15;100063.37;1723301;82;20963;-59
2022/05/15 04:37:51;;;;;;;9.93;2.77;;;;;;;12.10;66.12;100058.91;1748686;82;21388;-59
2022/05/15 04:40:20;;;;;;;5.83;2.72;;;;;;;12.14;66.00;100054.67;1748901;82;21407;-59
2022/05/15 04:42:49;;;;;;;8.95;2.98;;;;;;;12.15;65.88;100054.99;1748656;82;21002;-57
2022/05/15 04:45:18;;;;;;;10.60;3.17;;;;;;;12.18;65.81;100053.19;1748569;82;20975;-59
2022/05/15 04:47:46;;;;;;;6.12;2.40;;;;;;;12.19;65.72;100046.63;1748606;82;20979;-60
2022/05/15 04:50:16;;;;;;;12.07;2.95;;;;;;;12.23;65.61;100051.16;1748537;81;20987;-59
2022/05/15 04:52:45;;;;;;;8.43;3.20;;;;;;;12.27;65.55;100059.28;1748694;81;21050;-58
2022/05/15 04:55:14;;;;;;;5.67;2.35;;;;;;;12.33;65.30;100060.63;1748586;82;21030;-58
2022/05/15 04:57:43;;;;;;;7.22;2.80;;;;;;;12.36;64.86;100060.75;1748649;82;21427;-57
2022/05/15 05:00:17;;;;;;;7.12;2.47;;;;;;;12.40;64.69;100055.66;1748471;81;21407;-57
2022/05/15 05:02:47;;;;;;;4.25;1.95;;;;;;;12.45;64.59;100057.23;1748713;82;21008;-59
2022/05/15 05:05:16;;;;;;;8.33;2.83;;;;;;;12.53;64.26;100072.09;1748688;82;21375;-57
2022/05/15 05:07:45;;;;;;;7.62;2.40;;;;;;;12.58;64.19;100070.91;1748618;81;20959;-59
2022/05/15 05:10:14;;;;;;;5.80;2.50;;;;;;;12.67;63.95;100079.21;1748582;81;21422;-60
2022/05/15 05:12:43;;;;;;;7.47;2.40;;;;;;;12.84;63.84;100075.42;1748721;81;21038;-57
2022/05/15 05:15:12;;;;;;;5.62;2.55;;;;;;;13.03;63.13;100064.02;1749070;82;21006;-58
2022/05/15 05:17:42;;;;;;;7.08;2.70;;;;;;;13.14;62.71;100060.55;1748541;82;21019;-58
2022/05/15 05:20:12;;;;;;;6.65;2.42;;;;;;;13.24;62.33;100060.92;1748619;82;20962;-61
2022/05/15 05:22:42;;;;;;;5.30;2.27;;;;;;;13.32;61.77;100057.90;1748784;81;20959;-59
2022/05/15 05:25:11;;;;;;;5.87;2.47;;;;;;;13.39;61.40;100061.44;1748583;82;20974;-60
2022/05/15 05:27:41;;;;;;;6.10;2.30;;;;;;;13.42;60.85;100059.61;1748857;81;21411;-58
2022/05/15 05:30:14;;;;;;;4.30;2.08;;;;;;;13.45;60.59;100058.32;1748658;82;20979;-61
2022/05/15 05:32:44;;;;;;;6.35;2.58;;;;;;;13.46;60.36;100055.88;1748553;81;21485;-58
2022/05/15 05:35:12;;;;;;;4.72;2.10;;;;;;;13.45;60.47;100056.41;1748613;82;20967;-58
2022/05/15 05:37:42;;;;;;;9.45;2.08;;;;;;;13.47;60.53;100055.66;1748554;82;20963;-60
2022/05/15 05:40:11;;;;;;;7.47;2.50;;;;;;;13.56;60.11;100055.67;1748537;82;21010;-59
2022/05/15 05:42:40;;;;;;;5.72;2.50;;;;;;;13.63;59.65;100060.59;1748559;82;21022;-58
2022/05/15 05:45:09;;;;;;;6.87;2.65;;;;;;;13.70;59.32;100059.71;1748640;82;21030;-62
2022/05/15 05:47:38;;;;;;;4.92;1.98;;;;;;;13.72;59.33;100068.59;1748618;82;20978;-57
2022/05/15 05:50:08;;;;;;;7.20;2.45;;;;;;;13.75;59.11;100064.84;1748534;82;20975;-58
2022/05/15 05:52:40;;;;;;;10.05;2.37;;;;;;;13.80;59.03;100065.54;1748756;81;21019;-59
2022/05/15 05:55:12;;;;;;;5.70;2.22;;;;;;;13.85;59.00;100068.45;1748603;81;21458;-57
2022/05/15 05:57:42;;;;;;;6.35;2.40;;;;;;;13.89;58.77;100065.56;1748547;82;20963;-57
2022/05/15 06:00:21;;;;;;;6.75;2.40;;;;;;;13.93;58.71;100072.30;1748584;82;21394;-59
2022/05/15 06:02:50;;;;;;;5.00;2.17;;;;;;;13.95;58.52;100069.62;1748553;82;20974;-59
2022/05/15 06:05:19;;;;;;;10.35;2.50;;;;;;;13.91;58.60;100068.39;1748546;82;20991;-58
2022/05/15 06:07:47;;;;;;;4.30;2.10;;;;;;;13.91;58.79;100071.67;1748619;82;20991;-57
2022/05/15 06:10:16;;;;;;;6.67;2.42;;;;;;;13.91;58.92;100075.81;1748647;82;20998;-59
2022/05/15 06:12:45;;;;;;;8.05;2.70;;;;;;;13.93;59.01;100077.27;1748545;82;21050;-60
2022/05/15 06:15:14;;;;;;;7.25;2.33;;;;;;;13.95;59.16;100083.92;1748501;82;20955;-59
2022/05/15 06:17:46;;;;;;;5.65;2.00;;;;;;;13.93;59.11;100084.69;1748545;82;21010;-59
2022/05/15 06:20:17;;;;;;;6.28;2.12;;;;;;;13.89;59.05;100076.04;1748538;82;20999;-57
2022/05/15 06:22:47;;;;;;;7.12;2.62;;;;;;;13.89;59.06;100078.80;1748632;82;20953;-59
2022/05/15 06:25:16;;;;;;;5.67;2.30;;;;;;;13.87;59.11;100084.22;1748630;81;21015;-59
2022/05/15 06:27:45;;;;;;;9.40;2.37;;;;;;;13.84;59.27;100080.55;1748644;81;21000;-61
2022/05/15 06:30:13;;;;;;;7.50;2.27;;;;;;;13.83;59.47;100074.73;1748592;82;21034;-59
2022/05/15 06:32:43;;;;;;;7.58;2.00;;;;;;;13.82;59.74;100078.02;1748801;82;21023;-59
2022/05/15 06:35:13;;;;;;;9.28;2.98;;;;;;;13.84;59.98;100077.79;1748750;81;21100;-60
2022/05/15 06:37:42;;;;;;;10.38;2.58;;;;;;;13.87;60.01;100075.95;1748709;82;21403;-59
2022/05/15 06:40:12;;;;;;;4.58;2.20;;;;;;;13.90;59.99;100080.48;1748571;82;20971;-58
2022/05/15 06:42:42;;;;;;;4.12;2.12;;;;;;;13.97;59.83;100079.03;1724501;82;20963;-59
2022/05/15 06:45:12;;;;;;;8.88;2.70;;;;;;;13.98;59.77;100081.25;1748627;82;21371;-58
2022/05/15 06:47:42;;;;;;;6.65;2.30;;;;;;;13.98;59.86;100085.38;1748626;81;21011;-59
2022/05/15 06:50:11;;;;;;;5.85;2.37;;;;;;;13.96;59.83;100088.36;1748719;82;20959;-59
2022/05/15 06:52:40;;;;;;;5.22;2.20;;;;;;;13.93;59.81;100073.67;1748567;82;21434;-59
2022/05/15 06:55:13;;;;;;;6.17;2.35;;;;;;;13.90;59.99;100069.46;1723570;82;20991;-57
2022/05/15 06:57:42;;;;;;;5.97;1.80;;;;;;;13.93;60.12;100070.91;1748724;81;20994;-58
2022/05/15 07:00:25;;;;;;;6.53;2.05;;;;;;;14.01;59.90;100074.75;1748653;82;20983;-62
2022/05/15 07:02:54;;;;;;;5.17;2.10;;;;;;;14.09;59.76;100073.07;1748531;81;21022;-59
2022/05/15 07:05:25;;;;;;;5.95;2.20;;;;;;;14.16;59.20;100055.93;1748559;81;21011;-59
2022/05/15 07:07:53;;;;;;;5.08;1.75;;;;;;;14.23;58.99;100060.83;1748673;82;21003;-59
2022/05/15 07:10:25;;;;;;;5.45;1.85;;;;;;;14.33;58.84;100061.70;1689628;84;21039;-59
2022/05/15 07:12:53;;;;;;;5.75;1.95;;;;;;;14.50;58.52;100055.05;1689469;85;21032;-59
2022/05/15 07:15:22;;;;;;;5.85;2.10;;;;;;;14.77;58.27;100059.67;1689406;85;21586;-59
2022/05/15 07:17:51;;;;;;;4.25;2.10;;;;;;;15.17;57.03;100055.81;1689277;85;21407;-58
2022/05/15 07:20:20;;;;;;;6.33;2.20;;;;;;;15.62;55.83;100045.14;1689413;85;21002;-59
2022/05/15 07:22:49;;;;;;;5.65;2.10;;;;;;;16.09;55.05;100058.94;1689482;85;21000;-59
2022/05/15 07:25:18;;;;;;;4.78;2.35;;;;;;;16.61;53.82;100057.59;1689376;85;20996;-59
2022/05/15 07:27:46;;;;;;;5.35;2.00;;;;;;;17.09;51.54;100047.51;1700037;82;21038;-59
2022/05/15 07:30:15;;;;;;;5.28;2.02;;;;;;;17.44;50.61;100048.67;1748409;81;20971;-61
2022/05/15 07:32:45;;;;;;;4.12;1.90;;;;;;;17.91;49.54;100039.50;1748631;82;21023;-59
2022/05/15 07:35:14;;;;;;;4.35;1.85;;;;;;;18.35;48.33;100040.97;1748688;82;21403;-59
2022/05/15 07:37:43;;;;;;;4.72;2.10;;;;;;;18.62;47.55;100040.52;1748599;82;21054;-57
2022/05/15 07:40:12;;;;;;;4.80;1.95;;;;;;;18.88;47.02;100036.12;1748541;81;20991;-60
2022/05/15 07:42:43;;;;;;;5.33;2.08;;;;;;;19.26;46.07;100029.55;1765172;80;21392;-59
2022/05/15 07:45:12;;;;;;;4.58;2.27;;;;;;;19.37;45.16;100026.86;1792578;79;20986;-59
2022/05/15 07:47:41;;;;;;;7.20;2.05;;;;;;;19.30;44.78;100033.48;1792829;80;20990;-60
2022/05/15 07:50:11;;;;;;;4.50;1.90;;;;;;;19.08;45.33;100025.77;1733282;82;20966;-59
2022/05/15 07:52:41;;;;;;;6.17;2.10;;;;;;;19.02;45.42;100014.88;1709377;83;20994;-59
2022/05/15 07:55:12;;;;;;;9.53;2.40;;;;;;;19.08;45.63;100017.44;1733154;83;20983;-59
2022/05/15 07:57:41;;;;;;;5.65;2.00;;;;;;;19.39;45.33;100024.66;1733455;83;21079;-60
2022/05/15 08:00:13;;;;;;;6.08;2.27;;;;;;;19.64;44.48;100024.92;1733254;83;21008;-58
2022/05/15 08:02:44;;;;;;;4.22;1.82;;;;;;;19.75;44.28;100018.33;1648161;87;21112;-59
2022/05/15 08:08:09;;;;;;;8.10;1.98;;;;;;;19.97;42.70;100021.53;1670686;84;21068;-60
2022/05/15 08:10:41;;;;;;;6.67;2.00;;;;;;;19.80;42.44;100016.14;1662943;86;21131;-59
2022/05/15 08:13:12;;;;;;;6.22;2.02;;;;;;;19.66;41.80;100024.11;1640868;86;21026;-59
2022/05/15 08:15:43;;;;;;;6.20;2.00;;;;;;;19.34;41.79;100017.12;1663019;86;20990;-59
2022/05/15 08:23:51;;;;;;;9.15;3.00;;;;;;;18.47;43.72;100011.16;1792942;80;20962;-59
2022/05/15 08:26:20;;;;;;;7.85;2.30;;;;;;;18.28;44.09;100006.50;1792801;80;20974;-58
2022/05/15 08:28:49;;;;;;;5.05;1.95;;;;;;;18.16;44.51;100010.45;1792728;80;21017;-59
2022/05/15 08:31:17;;;;;;;4.22;1.70;;;;;;;18.04;44.67;100007.26;1778942;79;20990;-59
2022/05/15 08:33:47;;;;;;;5.58;1.77;;;;;;;18.06;45.00;100008.39;1777050;81;20970;-58
2022/05/15 08:36:15;;;;;;;6.67;1.95;;;;;;;18.33;44.66;99998.23;1777022;81;21025;-59
2022/05/15 08:38:44;;;;;;;7.08;1.60;;;;;;;18.71;44.02;99999.26;1777075;80;21005;-59
2022/05/15 08:41:42;;;;;;;8.38;2.00;;;;;;;18.99;43.16;100002.36;1776975;81;21026;-58
2022/05/15 08:44:19;;;;;;;6.78;1.87;;;;;;;19.21;41.48;99989.23;1777212;81;21001;-59
2022/05/15 08:46:56;;;;;;;5.10;1.47;;;;;;;19.21;41.03;100015.62;1777043;81;21013;-59
2022/05/15 08:49:36;;;;;;;4.70;1.40;;;;;;;19.03;39.42;100000.73;1777003;81;20934;-58
2022/05/15 08:52:13;;;;;;;5.08;1.72;;;;;;;18.72;39.63;100005.65;1777248;81;21021;-58
2022/05/15 08:55:16;;;;;;;5.92;1.60;;;;;;;18.55;41.30;100002.94;1779138;79;20972;-59
2022/05/15 08:58:10;;;;;;;4.10;1.45;;;;;;;18.47;41.36;99999.23;1761790;80;21012;-59
2022/05/15 09:00:50;;;;;;;4.35;1.50;;;;;;;18.39;41.12;99994.98;1792836;79;20996;-59
2022/05/15 09:03:23;;;;;;;5.53;1.77;;;;;;;18.23;40.18;99995.34;1786157;80;21004;-64
2022/05/15 09:06:03;;;;;;;6.45;2.00;;;;;;;17.98;41.06;99996.36;1777011;81;20995;-60
2022/05/15 09:09:15;;;;;;;4.87;1.45;;;;;;;17.87;41.71;99994.54;1777016;81;21015;-59
2022/05/15 09:12:14;;;;;;;4.60;1.65;;;;;;;17.86;41.45;99997.86;1782847;80;21016;-59
2022/05/15 09:15:23;;;;;;;4.72;1.47;;;;;;;17.80;41.49;99996.11;1792968;80;21076;-58
2022/05/15 09:17:58;;;;;;;6.35;1.50;;;;;;;17.71;41.56;100002.63;1769377;80;20984;-59
2022/05/15 09:20:50;;;;;;;9.80;2.60;;;;;;;17.61;41.72;100004.38;1792791;80;21011;-57
2022/05/15 09:23:35;;;;;;;3.67;1.62;;;;;;;17.57;41.55;100005.98;1792585;80;21408;-58
2022/05/15 09:26:17;;;;;;;4.42;1.50;;;;;;;17.62;41.79;99999.97;1792790;80;21348;-59
2022/05/15 09:28:52;;;;;;;4.17;1.40;;;;;;;17.82;42.06;99991.69;1792807;79;21000;-59
2022/05/15 09:31:30;;;;;;;5.22;1.50;;;;;;;18.03;41.37;99982.02;1769975;80;21020;-56
2022/05/15 09:34:04;;;;;;;4.47;1.40;;;;;;;18.20;41.26;99982.50;1792738;80;21431;-59
2022/05/15 09:36:42;;;;;;;4.33;1.45;;;;;;;18.38;40.65;99989.98;1792742;80;20948;-59
2022/05/15 09:39:29;;;;;;;7.30;1.37;;;;;;;18.49;39.81;99993.71;1792893;80;21415;-58
2022/05/15 09:45:22;;;;;;;4.53;1.60;;;;;;;18.27;40.01;99988.73;1792808;80;20968;-58
2022/05/15 09:48:00;;;;;;;7.25;1.87;;;;;;;18.20;40.37;99978.34;1792557;80;20969;-58
2022/05/15 09:50:50;;;;;;;8.05;1.90;;;;;;;18.13;40.68;99986.86;1792844;80;20991;-58
2022/05/15 09:53:43;;;;;;;4.92;1.55;;;;;;;18.07;41.38;99987.89;1792679;79;20980;-58
2022/05/15 09:56:23;;;;;;;5.58;1.62;;;;;;;18.03;41.36;99983.41;1768302;80;21000;-58
2022/05/15 09:59:08;;;;;;;8.75;1.80;;;;;;;18.12;41.38;99976.02;1791420;80;20992;-56
2022/05/15 10:01:52;;;;;;;4.90;1.72;;;;;;;18.23;41.50;99984.80;1792560;79;20976;-59
2022/05/15 10:04:25;;;;;;;3.55;1.40;;;;;;;18.35;41.09;99982.17;1789840;80;21009;-59
2022/05/15 10:06:59;;;;;;;6.17;1.50;;;;;;;18.44;40.29;99978.94;1790100;80;20973;-59
2022/05/15 10:09:37;;;;;;;3.33;1.42;;;;;;;18.49;39.53;99971.52;1789968;80;20973;-59
2022/05/15 10:12:30;;;;;;;3.52;1.37;;;;;;;18.46;39.93;99966.48;1789606;79;20989;-57
2022/05/15 10:15:01;;;;;;;5.12;1.70;;;;;;;18.46;39.96;99970.65;1789383;80;21018;-58
2022/05/15 10:17:30;;;;;;;5.67;1.52;;;;;;;18.48;40.05;99982.33;1790270;79;20981;-59
2022/05/15 10:20:07;;;;;;;5.72;1.60;;;;;;;18.44;39.30;99981.72;1789894;80;20988;-58
2022/05/15 10:22:53;;;;;;;5.90;1.82;;;;;;;18.34;39.57;99971.34;1789929;80;21369;-57
2022/05/15 10:25:45;;;;;;;5.00;1.65;;;;;;;18.33;39.80;99972.44;1789901;80;20988;-58
2022/05/15 10:28:35;;;;;;;5.22;1.50;;;;;;;18.33;39.65;99984.38;1789911;80;21024;-57
2022/05/15 10:31:24;;;;;;;6.83;1.62;;;;;;;18.32;39.66;99974.92;1764736;80;21472;-57
2022/05/15 10:33:57;;;;;;;7.97;2.25;;;;;;;18.38;39.92;99973.34;1764655;80;21024;-60
2022/05/15 10:36:54;;;;;;;5.78;1.47;;;;;;;18.46;39.87;99980.36;1790066;80;20960;-60
2022/05/15 10:39:56;;;;;;;5.58;1.70;;;;;;;18.48;39.71;99974.00;1789711;79;21389;-57
2022/05/15 10:42:48;;;;;;;9.03;2.15;;;;;;;18.44;40.08;99990.88;1789972;80;21035;-57
2022/05/15 10:45:35;;;;;;;9.25;2.50;;;;;;;18.36;41.17;100005.20;1789970;80;21008;-59
2022/05/15 10:48:33;;;;;;;7.62;2.40;;;;;;;18.21;41.99;99998.08;1789924;79;20985;-59
2022/05/15 10:51:22;;;;;;;8.15;2.50;;;;;;;18.17;42.21;99994.11;1710926;84;21043;-57
2022/05/15 10:57:31;;;;;;;8.53;2.17;;;;;;;18.23;41.34;100011.14;1710995;84;20172;-58
2022/05/15 11:00:31;;;;;;;6.80;2.20;;;;;;;18.22;41.17;99999.20;1710919;84;21108;-57
2022/05/15 11:03:19;;;;;;;6.65;2.17;;;;;;;18.20;41.64;100000.53;1700011;84;21060;-58
2022/05/15 12:13:27;;;;;;;10.32;2.58;;;;;;;19.17;36.27;99981.69;1729352;78;21143;-56
2022/05/15 12:16:16;;;;;;;5.33;1.98;;;;;;;19.10;36.30;99975.52;1644056;86;21039;-55
2022/05/15 12:18:44;;;;;;;7.75;2.30;;;;;;;19.00;36.32;99990.15;1667326;86;21036;-56
2022/05/15 12:21:15;;;;;;;5.72;1.90;;;;;;;18.85;36.36;99983.86;1667370;86;21063;-56
2022/05/15 12:26:52;;;;;;;8.50;2.15;;;;;;;18.75;36.73;99984.31;1667321;86;21044;-55
2022/05/15 12:29:51;;;;;;;4.62;2.15;;;;;;;18.68;36.88;99971.48;1694409;83;21032;-56
2022/05/15 12:32:34;;;;;;;6.12;1.85;;;;;;;18.65;37.04;99985.87;1707416;83;21034;-56
2022/05/15 12:35:05;;;;;;;5.55;1.40;;;;;;;18.60;35.43;99989.95;1636373;88;21068;-56
2022/05/15 12:37:49;;;;;;;9.80;1.80;;;;;;;18.54;35.82;99991.55;1634164;86;21036;-56
2022/05/15 12:40:29;;;;;;;13.03;1.98;;;;;;;18.50;36.01;100000.09;1659897;86;21441;-57
2022/05/15 12:42:58;;;;;;;8.15;1.70;;;;;;;18.49;35.75;99992.87;1673143;86;21003;-55
2022/05/15 12:45:27;;;;;;;11.03;2.15;;;;;;;18.45;35.86;99997.27;1647601;86;21008;-56
2022/05/15 12:48:08;;;;;;;8.33;2.22;;;;;;;18.42;35.66;99979.75;1637088;86;21411;-57
2022/05/15 12:51:05;;;;;;;4.42;1.67;;;;;;;18.37;36.32;99976.37;1636917;88;21015;-56
2022/05/15 12:53:42;;;;;;;7.05;2.10;;;;;;;18.38;36.20;99978.05;1637097;87;21463;-55
2022/05/15 12:56:21;;;;;;;9.95;2.33;;;;;;;18.36;35.62;99956.66;1637017;88;21006;-54
2022/05/15 12:58:54;;;;;;;9.88;2.10;;;;;;;18.33;35.65;99961.34;1636968;87;21089;-55
2022/05/15 13:01:27;;;;;;;7.58;2.08;;;;;;;18.30;35.19;99959.09;1636456;87;21008;-54
2022/05/15 13:04:00;;;;;;;5.15;1.95;;;;;;;18.24;35.67;99968.44;1663945;86;21699;-53
2022/05/15 13:06:36;;;;;;;5.87;2.05;;;;;;;18.26;35.86;99967.09;1664057;86;21165;-54
2022/05/15 13:09:10;;;;;;;6.12;1.75;;;;;;;18.34;35.80;99976.89;1664058;86;21053;-54
2022/05/15 13:11:50;;;;;;;6.83;1.77;;;;;;;18.48;34.56;99978.71;1664072;86;21049;-55
2022/05/15 13:14:27;;;;;;;5.95;1.70;;;;;;;18.55;33.43;99963.53;1662718;86;21045;-56
2022/05/15 13:16:56;;;;;;;6.17;1.70;;;;;;;18.52;33.00;99966.84;1657152;86;21033;-56
2022/05/15 13:19:47;;;;;;;7.42;2.02;;;;;;;18.54;33.22;99945.22;1656961;86;21444;-57
2022/05/15 13:22:22;;;;;;;4.53;1.70;;;;;;;18.57;33.54;99951.62;1656987;86;21018;-56
2022/05/15 13:24:58;;;;;;;6.97;1.60;;;;;;;18.64;33.50;99960.61;1656975;86;21010;-56